sensor_id;sensor_type;location;lat;lon;timestamp;P1;durP1;ratioP1;P2;durP2;ratioP2
7215;SDS011;3649;48.798;9.798;2022-10-16T00:01:33;8.23;;;5.00;;
7215;SDS011;3649;48.798;9.798;2022-10-16T00:04:00;6.43;;;4.53;;
7215;SDS011;3649;48.798;9.798;2022-10-16T00:06:27;6.50;;;4.30;;
7215;SDS011;3649;48.798;9.798;2022-10-16T00:08:55;9.23;;;5.03;;
7215;SDS011;3649;48.798;9.798;2022-10-16T00:11:26;9.60;;;4.77;;
7215;SDS011;3649;48.798;9.798;2022-10-16T00:13:57;10.80;;;4.77;;
7215;SDS011;3649;48.798;9.798;2022-10-16T00:16:25;8.70;;;4.50;;
7215;SDS011;3649;48.798;9.798;2022-10-16T00:18:52;8.00;;;4.40;;
7215;SDS011;3649;48.798;9.798;2022-10-16T00:21:21;6.23;;;4.47;;
7215;SDS011;3649;48.798;9.798;2022-10-16T00:23:54;7.20;;;4.30;;
7215;SDS011;3649;48.798;9.798;2022-10-16T00:26:22;6.50;;;4.27;;
7215;SDS011;3649;48.798;9.798;2022-10-16T00:28:49;9.23;;;4.23;;
7215;SDS011;3649;48.798;9.798;2022-10-16T00:31:18;6.47;;;3.97;;
7215;SDS011;3649;48.798;9.798;2022-10-16T00:33:46;9.03;;;5.00;;
7215;SDS011;3649;48.798;9.798;2022-10-16T00:36:15;8.63;;;4.63;;
7215;SDS011;3649;48.798;9.798;2022-10-16T00:38:44;10.07;;;4.40;;
7215;SDS011;3649;48.798;9.798;2022-10-16T00:41:13;8.40;;;4.23;;
7215;SDS011;3649;48.798;9.798;2022-10-16T00:43:52;6.30;;;4.37;;
7215;SDS011;3649;48.798;9.798;2022-10-16T00:46:31;9.33;;;4.67;;
7215;SDS011;3649;48.798;9.798;2022-10-16T00:49:04;6.90;;;4.50;;
7215;SDS011;3649;48.798;9.798;2022-10-16T00:51:40;8.00;;;3.93;;
7215;SDS011;3649;48.798;9.798;2022-10-16T00:54:15;6.93;;;3.33;;
7215;SDS011;3649;48.798;9.798;2022-10-16T00:56:47;6.30;;;3.40;;
7215;SDS011;3649;48.798;9.798;2022-10-16T00:59:16;6.43;;;3.73;;
7215;SDS011;3649;48.798;9.798;2022-10-16T01:01:46;6.77;;;4.30;;
7215;SDS011;3649;48.798;9.798;2022-10-16T01:04:13;5.43;;;3.37;;
7215;SDS011;3649;48.798;9.798;2022-10-16T01:06:43;7.63;;;3.83;;
7215;SDS011;3649;48.798;9.798;2022-10-16T01:12:00;5.13;;;3.80;;
7215;SDS011;3649;48.798;9.798;2022-10-16T01:14:54;6.27;;;3.97;;
7215;SDS011;3649;48.798;9.798;2022-10-16T01:17:38;7.03;;;3.77;;
7215;SDS011;3649;48.798;9.798;2022-10-16T01:20:17;6.00;;;3.80;;
7215;SDS011;3649;48.798;9.798;2022-10-16T01:28:28;3.70;;;3.37;;
7215;SDS011;3649;48.798;9.798;2022-10-16T01:31:00;7.53;;;3.57;;
7215;SDS011;3649;48.798;9.798;2022-10-16T01:33:35;5.63;;;3.70;;
7215;SDS011;3649;48.798;9.798;2022-10-16T01:36:10;6.93;;;3.20;;
7215;SDS011;3649;48.798;9.798;2022-10-16T01:38:40;6.00;;;3.40;;
7215;SDS011;3649;48.798;9.798;2022-10-16T01:44:11;5.97;;;3.40;;
7215;SDS011;3649;48.798;9.798;2022-10-16T01:46:46;12.17;;;3.07;;
7215;SDS011;3649;48.798;9.798;2022-10-16T01:49:16;3.73;;;3.40;;
7215;SDS011;3649;48.798;9.798;2022-10-16T01:51:45;6.47;;;3.70;;
7215;SDS011;3649;48.798;9.798;2022-10-16T01:54:16;5.03;;;3.13;;
7215;SDS011;3649;48.798;9.798;2022-10-16T01:56:45;4.57;;;3.90;;
7215;SDS011;3649;48.798;9.798;2022-10-16T01:59:15;4.33;;;3.80;;
7215;SDS011;3649;48.798;9.798;2022-10-16T02:01:45;8.23;;;3.83;;
7215;SDS011;3649;48.798;9.798;2022-10-16T02:04:17;5.00;;;3.80;;
7215;SDS011;3649;48.798;9.798;2022-10-16T02:06:49;6.57;;;3.67;;
7215;SDS011;3649;48.798;9.798;2022-10-16T02:09:16;4.30;;;3.27;;
7215;SDS011;3649;48.798;9.798;2022-10-16T02:11:43;4.70;;;2.50;;
7215;SDS011;3649;48.798;9.798;2022-10-16T02:14:10;6.40;;;2.83;;
7215;SDS011;3649;48.798;9.798;2022-10-16T02:16:38;3.03;;;2.67;;
7215;SDS011;3649;48.798;9.798;2022-10-16T02:19:10;5.83;;;3.10;;
7215;SDS011;3649;48.798;9.798;2022-10-16T02:27:14;7.70;;;3.30;;
7215;SDS011;3649;48.798;9.798;2022-10-16T02:29:46;8.80;;;3.20;;
7215;SDS011;3649;48.798;9.798;2022-10-16T02:32:17;6.00;;;3.20;;
7215;SDS011;3649;48.798;9.798;2022-10-16T02:34:48;9.77;;;3.50;;
7215;SDS011;3649;48.798;9.798;2022-10-16T02:37:16;5.10;;;3.13;;
7215;SDS011;3649;48.798;9.798;2022-10-16T02:39:44;5.53;;;3.30;;
7215;SDS011;3649;48.798;9.798;2022-10-16T02:42:12;14.13;;;4.03;;
7215;SDS011;3649;48.798;9.798;2022-10-16T02:44:40;4.77;;;3.60;;
7215;SDS011;3649;48.798;9.798;2022-10-16T02:47:07;5.50;;;3.27;;
7215;SDS011;3649;48.798;9.798;2022-10-16T02:49:33;3.77;;;3.43;;
7215;SDS011;3649;48.798;9.798;2022-10-16T02:52:00;6.67;;;3.77;;
7215;SDS011;3649;48.798;9.798;2022-10-16T02:54:27;5.77;;;3.57;;
7215;SDS011;3649;48.798;9.798;2022-10-16T02:56:54;6.13;;;3.50;;
7215;SDS011;3649;48.798;9.798;2022-10-16T02:59:21;4.57;;;3.33;;
7215;SDS011;3649;48.798;9.798;2022-10-16T03:01:47;5.03;;;3.50;;
7215;SDS011;3649;48.798;9.798;2022-10-16T03:04:14;3.47;;;3.07;;
7215;SDS011;3649;48.798;9.798;2022-10-16T03:06:41;6.93;;;3.17;;
7215;SDS011;3649;48.798;9.798;2022-10-16T03:09:08;2.90;;;2.70;;
7215;SDS011;3649;48.798;9.798;2022-10-16T03:11:35;5.40;;;3.80;;
7215;SDS011;3649;48.798;9.798;2022-10-16T03:14:02;3.93;;;3.63;;
7215;SDS011;3649;48.798;9.798;2022-10-16T03:16:29;3.50;;;3.20;;
7215;SDS011;3649;48.798;9.798;2022-10-16T03:18:56;6.40;;;3.47;;
7215;SDS011;3649;48.798;9.798;2022-10-16T03:21:22;8.63;;;3.70;;
7215;SDS011;3649;48.798;9.798;2022-10-16T03:23:49;4.10;;;3.33;;
7215;SDS011;3649;48.798;9.798;2022-10-16T03:26:16;4.07;;;2.77;;
7215;SDS011;3649;48.798;9.798;2022-10-16T03:28:43;7.73;;;3.27;;
7215;SDS011;3649;48.798;9.798;2022-10-16T03:31:10;3.53;;;3.27;;
7215;SDS011;3649;48.798;9.798;2022-10-16T03:33:36;3.13;;;2.70;;
7215;SDS011;3649;48.798;9.798;2022-10-16T03:36:03;3.13;;;2.83;;
7215;SDS011;3649;48.798;9.798;2022-10-16T03:38:30;4.83;;;2.77;;
7215;SDS011;3649;48.798;9.798;2022-10-16T03:40:57;3.77;;;2.77;;
7215;SDS011;3649;48.798;9.798;2022-10-16T03:43:24;4.10;;;2.87;;
7215;SDS011;3649;48.798;9.798;2022-10-16T03:45:51;7.47;;;3.03;;
7215;SDS011;3649;48.798;9.798;2022-10-16T03:48:18;3.83;;;2.80;;
7215;SDS011;3649;48.798;9.798;2022-10-16T03:50:45;3.50;;;2.83;;
7215;SDS011;3649;48.798;9.798;2022-10-16T03:53:14;5.00;;;2.57;;
7215;SDS011;3649;48.798;9.798;2022-10-16T03:55:41;2.80;;;2.60;;
7215;SDS011;3649;48.798;9.798;2022-10-16T03:58:08;3.73;;;2.47;;
7215;SDS011;3649;48.798;9.798;2022-10-16T04:00:35;2.50;;;2.30;;
7215;SDS011;3649;48.798;9.798;2022-10-16T04:03:05;4.67;;;2.27;;
7215;SDS011;3649;48.798;9.798;2022-10-16T04:05:32;2.50;;;2.33;;
7215;SDS011;3649;48.798;9.798;2022-10-16T04:07:59;5.80;;;2.50;;
7215;SDS011;3649;48.798;9.798;2022-10-16T04:10:26;7.10;;;2.60;;
7215;SDS011;3649;48.798;9.798;2022-10-16T04:12:52;5.47;;;2.27;;
7215;SDS011;3649;48.798;9.798;2022-10-16T04:15:22;4.40;;;2.10;;
7215;SDS011;3649;48.798;9.798;2022-10-16T04:17:49;8.73;;;2.27;;
7215;SDS011;3649;48.798;9.798;2022-10-16T04:20:16;2.83;;;2.20;;
7215;SDS011;3649;48.798;9.798;2022-10-16T04:22:43;6.57;;;2.30;;
7215;SDS011;3649;48.798;9.798;2022-10-16T04:25:11;7.17;;;2.33;;
7215;SDS011;3649;48.798;9.798;2022-10-16T04:27:38;6.87;;;2.10;;
7215;SDS011;3649;48.798;9.798;2022-10-16T04:30:10;1.90;;;1.80;;
7215;SDS011;3649;48.798;9.798;2022-10-16T04:32:37;3.53;;;2.20;;
7215;SDS011;3649;48.798;9.798;2022-10-16T04:35:04;7.63;;;2.10;;
7215;SDS011;3649;48.798;9.798;2022-10-16T04:37:31;4.33;;;2.10;;
7215;SDS011;3649;48.798;9.798;2022-10-16T04:39:58;2.50;;;1.87;;
7215;SDS011;3649;48.798;9.798;2022-10-16T04:42:25;2.87;;;2.20;;
7215;SDS011;3649;48.798;9.798;2022-10-16T04:44:52;6.77;;;1.93;;
7215;SDS011;3649;48.798;9.798;2022-10-16T04:47:18;3.83;;;2.30;;
7215;SDS011;3649;48.798;9.798;2022-10-16T04:49:45;2.63;;;2.00;;
7215;SDS011;3649;48.798;9.798;2022-10-16T04:52:12;2.03;;;1.93;;
7215;SDS011;3649;48.798;9.798;2022-10-16T04:54:38;3.53;;;2.37;;
7215;SDS011;3649;48.798;9.798;2022-10-16T04:57:05;7.67;;;2.13;;
7215;SDS011;3649;48.798;9.798;2022-10-16T04:59:32;2.17;;;1.93;;
7215;SDS011;3649;48.798;9.798;2022-10-16T05:01:59;4.73;;;2.27;;
7215;SDS011;3649;48.798;9.798;2022-10-16T05:04:26;3.07;;;2.37;;
7215;SDS011;3649;48.798;9.798;2022-10-16T05:06:52;3.03;;;2.00;;
7215;SDS011;3649;48.798;9.798;2022-10-16T05:09:19;6.03;;;2.37;;
7215;SDS011;3649;48.798;9.798;2022-10-16T05:11:46;7.33;;;2.23;;
7215;SDS011;3649;48.798;9.798;2022-10-16T05:14:13;3.40;;;2.10;;
7215;SDS011;3649;48.798;9.798;2022-10-16T05:16:40;2.40;;;1.90;;
7215;SDS011;3649;48.798;9.798;2022-10-16T05:19:07;4.70;;;1.90;;
7215;SDS011;3649;48.798;9.798;2022-10-16T05:21:53;2.20;;;2.00;;
7215;SDS011;3649;48.798;9.798;2022-10-16T05:24:20;3.17;;;2.40;;
7215;SDS011;3649;48.798;9.798;2022-10-16T05:26:46;7.93;;;1.90;;
7215;SDS011;3649;48.798;9.798;2022-10-16T05:29:14;8.07;;;2.20;;
7215;SDS011;3649;48.798;9.798;2022-10-16T05:31:41;11.60;;;2.60;;
7215;SDS011;3649;48.798;9.798;2022-10-16T05:34:07;4.27;;;2.30;;
7215;SDS011;3649;48.798;9.798;2022-10-16T05:36:34;3.07;;;2.07;;
7215;SDS011;3649;48.798;9.798;2022-10-16T05:39:02;5.40;;;2.20;;
7215;SDS011;3649;48.798;9.798;2022-10-16T05:41:29;4.10;;;2.50;;
7215;SDS011;3649;48.798;9.798;2022-10-16T05:43:55;5.43;;;2.93;;
7215;SDS011;3649;48.798;9.798;2022-10-16T05:46:22;3.03;;;2.20;;
7215;SDS011;3649;48.798;9.798;2022-10-16T05:48:51;4.00;;;2.37;;
7215;SDS011;3649;48.798;9.798;2022-10-16T05:51:19;5.00;;;3.03;;
7215;SDS011;3649;48.798;9.798;2022-10-16T05:53:46;3.30;;;2.23;;
7215;SDS011;3649;48.798;9.798;2022-10-16T05:56:13;3.77;;;2.23;;
7215;SDS011;3649;48.798;9.798;2022-10-16T05:58:40;8.23;;;2.53;;
7215;SDS011;3649;48.798;9.798;2022-10-16T06:01:10;4.47;;;2.10;;
7215;SDS011;3649;48.798;9.798;2022-10-16T06:03:38;2.80;;;2.30;;
7215;SDS011;3649;48.798;9.798;2022-10-16T06:06:19;10.47;;;2.33;;
7215;SDS011;3649;48.798;9.798;2022-10-16T06:08:47;6.30;;;2.27;;
7215;SDS011;3649;48.798;9.798;2022-10-16T06:11:19;6.10;;;2.37;;
7215;SDS011;3649;48.798;9.798;2022-10-16T06:13:57;3.70;;;2.10;;
7215;SDS011;3649;48.798;9.798;2022-10-16T06:16:33;4.37;;;2.83;;
7215;SDS011;3649;48.798;9.798;2022-10-16T06:19:03;2.93;;;2.40;;
7215;SDS011;3649;48.798;9.798;2022-10-16T06:21:33;3.87;;;2.50;;
7215;SDS011;3649;48.798;9.798;2022-10-16T06:24:00;5.50;;;2.40;;
7215;SDS011;3649;48.798;9.798;2022-10-16T06:26:28;20.83;;;11.83;;
7215;SDS011;3649;48.798;9.798;2022-10-16T06:28:56;21.23;;;11.17;;
7215;SDS011;3649;48.798;9.798;2022-10-16T06:31:25;62.87;;;22.63;;
7215;SDS011;3649;48.798;9.798;2022-10-16T06:33:54;37.37;;;14.03;;
7215;SDS011;3649;48.798;9.798;2022-10-16T06:36:22;19.93;;;8.80;;
7215;SDS011;3649;48.798;9.798;2022-10-16T06:38:50;10.50;;;4.67;;
7215;SDS011;3649;48.798;9.798;2022-10-16T06:41:18;5.00;;;3.13;;
7215;SDS011;3649;48.798;9.798;2022-10-16T06:43:46;6.43;;;2.37;;
7215;SDS011;3649;48.798;9.798;2022-10-16T06:46:16;4.30;;;2.60;;
7215;SDS011;3649;48.798;9.798;2022-10-16T06:48:44;6.00;;;2.80;;
7215;SDS011;3649;48.798;9.798;2022-10-16T06:51:12;6.33;;;2.97;;
7215;SDS011;3649;48.798;9.798;2022-10-16T06:53:40;6.10;;;2.70;;
7215;SDS011;3649;48.798;9.798;2022-10-16T06:56:28;5.90;;;3.33;;
7215;SDS011;3649;48.798;9.798;2022-10-16T06:58:57;7.20;;;3.20;;
7215;SDS011;3649;48.798;9.798;2022-10-16T07:01:24;7.87;;;2.70;;
7215;SDS011;3649;48.798;9.798;2022-10-16T07:03:52;5.73;;;3.20;;
7215;SDS011;3649;48.798;9.798;2022-10-16T07:06:20;8.93;;;2.90;;
7215;SDS011;3649;48.798;9.798;2022-10-16T07:08:48;3.73;;;2.57;;
7215;SDS011;3649;48.798;9.798;2022-10-16T07:11:17;5.03;;;2.87;;
7215;SDS011;3649;48.798;9.798;2022-10-16T07:13:46;7.20;;;2.77;;
7215;SDS011;3649;48.798;9.798;2022-10-16T07:16:21;3.40;;;2.73;;
7215;SDS011;3649;48.798;9.798;2022-10-16T07:18:53;5.23;;;3.37;;
7215;SDS011;3649;48.798;9.798;2022-10-16T07:21:26;5.27;;;3.40;;
7215;SDS011;3649;48.798;9.798;2022-10-16T07:23:56;4.97;;;3.43;;
7215;SDS011;3649;48.798;9.798;2022-10-16T07:26:25;7.97;;;3.70;;
7215;SDS011;3649;48.798;9.798;2022-10-16T07:28:54;5.90;;;3.67;;
7215;SDS011;3649;48.798;9.798;2022-10-16T07:31:21;16.53;;;4.27;;
7215;SDS011;3649;48.798;9.798;2022-10-16T07:33:48;4.50;;;4.13;;
7215;SDS011;3649;48.798;9.798;2022-10-16T07:36:16;3.97;;;3.67;;
7215;SDS011;3649;48.798;9.798;2022-10-16T07:38:44;5.47;;;3.77;;
7215;SDS011;3649;48.798;9.798;2022-10-16T07:41:12;5.13;;;3.60;;
7215;SDS011;3649;48.798;9.798;2022-10-16T07:43:45;9.50;;;4.27;;
7215;SDS011;3649;48.798;9.798;2022-10-16T07:46:13;6.07;;;3.73;;
7215;SDS011;3649;48.798;9.798;2022-10-16T07:48:41;5.67;;;3.37;;
7215;SDS011;3649;48.798;9.798;2022-10-16T07:51:12;6.60;;;3.80;;
7215;SDS011;3649;48.798;9.798;2022-10-16T07:53:40;4.80;;;3.73;;
7215;SDS011;3649;48.798;9.798;2022-10-16T07:56:07;8.53;;;3.37;;
7215;SDS011;3649;48.798;9.798;2022-10-16T07:58:34;3.80;;;3.30;;
7215;SDS011;3649;48.798;9.798;2022-10-16T08:01:05;6.37;;;3.40;;
7215;SDS011;3649;48.798;9.798;2022-10-16T08:03:34;6.10;;;3.37;;
7215;SDS011;3649;48.798;9.798;2022-10-16T08:06:01;3.17;;;2.50;;
7215;SDS011;3649;48.798;9.798;2022-10-16T08:08:29;3.30;;;2.30;;
7215;SDS011;3649;48.798;9.798;2022-10-16T08:10:56;5.13;;;2.30;;
7215;SDS011;3649;48.798;9.798;2022-10-16T08:13:23;7.90;;;2.63;;
7215;SDS011;3649;48.798;9.798;2022-10-16T08:15:50;5.03;;;2.60;;
7215;SDS011;3649;48.798;9.798;2022-10-16T08:18:17;5.43;;;2.47;;
7215;SDS011;3649;48.798;9.798;2022-10-16T08:20:43;3.83;;;2.13;;
7215;SDS011;3649;48.798;9.798;2022-10-16T08:23:11;3.37;;;2.43;;
7215;SDS011;3649;48.798;9.798;2022-10-16T08:25:39;7.00;;;2.13;;
7215;SDS011;3649;48.798;9.798;2022-10-16T08:28:08;2.23;;;2.03;;
7215;SDS011;3649;48.798;9.798;2022-10-16T08:30:36;4.67;;;2.40;;
7215;SDS011;3649;48.798;9.798;2022-10-16T08:33:03;2.80;;;2.03;;
7215;SDS011;3649;48.798;9.798;2022-10-16T08:35:30;4.40;;;2.37;;
7215;SDS011;3649;48.798;9.798;2022-10-16T08:37:57;2.20;;;2.10;;
7215;SDS011;3649;48.798;9.798;2022-10-16T08:40:28;5.63;;;2.63;;
7215;SDS011;3649;48.798;9.798;2022-10-16T08:46:05;6.87;;;2.40;;
7215;SDS011;3649;48.798;9.798;2022-10-16T08:48:45;4.33;;;3.07;;
7215;SDS011;3649;48.798;9.798;2022-10-16T08:51:21;4.17;;;3.17;;
7215;SDS011;3649;48.798;9.798;2022-10-16T08:56:21;4.30;;;3.30;;
7215;SDS011;3649;48.798;9.798;2022-10-16T08:58:49;6.63;;;2.70;;
7215;SDS011;3649;48.798;9.798;2022-10-16T09:01:23;3.37;;;2.17;;
7215;SDS011;3649;48.798;9.798;2022-10-16T09:04:11;5.00;;;2.40;;
7215;SDS011;3649;48.798;9.798;2022-10-16T09:06:45;3.63;;;2.70;;
7215;SDS011;3649;48.798;9.798;2022-10-16T09:12:15;5.97;;;2.50;;
7215;SDS011;3649;48.798;9.798;2022-10-16T09:20:33;2.13;;;2.03;;
7215;SDS011;3649;48.798;9.798;2022-10-16T09:25:32;2.67;;;2.47;;
7215;SDS011;3649;48.798;9.798;2022-10-16T09:28:00;5.07;;;2.70;;
7215;SDS011;3649;48.798;9.798;2022-10-16T09:30:27;4.10;;;2.50;;
7215;SDS011;3649;48.798;9.798;2022-10-16T09:32:57;4.50;;;3.03;;
7215;SDS011;3649;48.798;9.798;2022-10-16T09:35:32;3.40;;;3.07;;
7215;SDS011;3649;48.798;9.798;2022-10-16T09:38:08;3.77;;;2.77;;
7215;SDS011;3649;48.798;9.798;2022-10-16T09:40:47;2.73;;;2.53;;
7215;SDS011;3649;48.798;9.798;2022-10-16T09:46:06;4.03;;;3.63;;
7215;SDS011;3649;48.798;9.798;2022-10-16T09:48:39;5.00;;;3.60;;
7215;SDS011;3649;48.798;9.798;2022-10-16T09:51:16;5.87;;;3.50;;
7215;SDS011;3649;48.798;9.798;2022-10-16T09:53:53;4.70;;;3.50;;
7215;SDS011;3649;48.798;9.798;2022-10-16T09:56:23;4.57;;;3.53;;
7215;SDS011;3649;48.798;9.798;2022-10-16T09:59:01;3.70;;;3.10;;
7215;SDS011;3649;48.798;9.798;2022-10-16T10:01:37;7.17;;;3.77;;
7215;SDS011;3649;48.798;9.798;2022-10-16T10:04:06;5.90;;;3.60;;
7215;SDS011;3649;48.798;9.798;2022-10-16T10:06:34;7.67;;;4.00;;
7215;SDS011;3649;48.798;9.798;2022-10-16T10:09:23;5.83;;;3.27;;
7215;SDS011;3649;48.798;9.798;2022-10-16T10:12:00;3.30;;;3.00;;
7215;SDS011;3649;48.798;9.798;2022-10-16T10:14:37;5.80;;;2.83;;
7215;SDS011;3649;48.798;9.798;2022-10-16T10:25:29;4.93;;;3.27;;
7215;SDS011;3649;48.798;9.798;2022-10-16T10:33:39;4.67;;;3.30;;
7215;SDS011;3649;48.798;9.798;2022-10-16T10:39:00;5.33;;;2.70;;
7215;SDS011;3649;48.798;9.798;2022-10-16T10:53:10;10.20;;;6.77;;
7215;SDS011;3649;48.798;9.798;2022-10-16T10:55:59;7.30;;;4.87;;
7215;SDS011;3649;48.798;9.798;2022-10-16T11:04:29;10.77;;;6.47;;
7215;SDS011;3649;48.798;9.798;2022-10-16T11:07:11;7.33;;;6.57;;
7215;SDS011;3649;48.798;9.798;2022-10-16T11:09:56;6.30;;;5.20;;
7215;SDS011;3649;48.798;9.798;2022-10-16T11:12:32;5.53;;;3.93;;
7215;SDS011;3649;48.798;9.798;2022-10-16T11:15:13;4.50;;;2.30;;
7215;SDS011;3649;48.798;9.798;2022-10-16T11:18:06;4.10;;;2.27;;
7215;SDS011;3649;48.798;9.798;2022-10-16T11:20:52;2.20;;;2.10;;
7215;SDS011;3649;48.798;9.798;2022-10-16T11:23:26;2.57;;;2.07;;
7215;SDS011;3649;48.798;9.798;2022-10-16T11:26:16;1.90;;;1.80;;
7215;SDS011;3649;48.798;9.798;2022-10-16T11:28:53;3.10;;;1.97;;
7215;SDS011;3649;48.798;9.798;2022-10-16T11:31:24;4.30;;;1.60;;
7215;SDS011;3649;48.798;9.798;2022-10-16T11:34:13;4.07;;;1.80;;
7215;SDS011;3649;48.798;9.798;2022-10-16T11:39:43;3.20;;;1.40;;
7215;SDS011;3649;48.798;9.798;2022-10-16T11:42:16;3.37;;;1.43;;
7215;SDS011;3649;48.798;9.798;2022-10-16T11:44:57;2.60;;;1.70;;
7215;SDS011;3649;48.798;9.798;2022-10-16T11:56:21;1.40;;;1.40;;
7215;SDS011;3649;48.798;9.798;2022-10-16T12:01:36;1.80;;;1.70;;
7215;SDS011;3649;48.798;9.798;2022-10-16T12:09:31;2.47;;;1.50;;
7215;SDS011;3649;48.798;9.798;2022-10-16T12:11:59;3.43;;;1.40;;
7215;SDS011;3649;48.798;9.798;2022-10-16T12:19:59;1.40;;;1.30;;
7215;SDS011;3649;48.798;9.798;2022-10-16T12:22:51;1.83;;;1.40;;
7215;SDS011;3649;48.798;9.798;2022-10-16T12:28:04;1.83;;;1.40;;
7215;SDS011;3649;48.798;9.798;2022-10-16T12:30:43;2.80;;;1.40;;
7215;SDS011;3649;48.798;9.798;2022-10-16T12:33:24;2.30;;;1.80;;
7215;SDS011;3649;48.798;9.798;2022-10-16T12:35:57;3.47;;;1.53;;
7215;SDS011;3649;48.798;9.798;2022-10-16T12:41:03;2.53;;;1.50;;
7215;SDS011;3649;48.798;9.798;2022-10-16T12:43:35;1.20;;;1.20;;
7215;SDS011;3649;48.798;9.798;2022-10-16T12:48:40;3.93;;;1.40;;
7215;SDS011;3649;48.798;9.798;2022-10-16T12:54:03;1.10;;;1.10;;
7215;SDS011;3649;48.798;9.798;2022-10-16T13:10:25;1.40;;;1.30;;
7215;SDS011;3649;48.798;9.798;2022-10-16T13:29:45;2.60;;;1.30;;
7215;SDS011;3649;48.798;9.798;2022-10-16T13:32:21;1.80;;;1.70;;
7215;SDS011;3649;48.798;9.798;2022-10-16T13:34:48;2.13;;;1.40;;
7215;SDS011;3649;48.798;9.798;2022-10-16T13:37:19;1.30;;;1.20;;
7215;SDS011;3649;48.798;9.798;2022-10-16T13:39:48;1.47;;;1.43;;
7215;SDS011;3649;48.798;9.798;2022-10-16T13:44:54;1.93;;;1.40;;
7215;SDS011;3649;48.798;9.798;2022-10-16T13:47:23;5.40;;;1.27;;
7215;SDS011;3649;48.798;9.798;2022-10-16T13:50:25;3.80;;;1.60;;
7215;SDS011;3649;48.798;9.798;2022-10-16T13:52:45;4.07;;;1.67;;
7215;SDS011;3649;48.798;9.798;2022-10-16T13:55:16;2.40;;;1.20;;
7215;SDS011;3649;48.798;9.798;2022-10-16T13:57:44;1.63;;;1.03;;
7215;SDS011;3649;48.798;9.798;2022-10-16T14:02:49;1.43;;;1.30;;
7215;SDS011;3649;48.798;9.798;2022-10-16T14:05:19;4.63;;;1.30;;
7215;SDS011;3649;48.798;9.798;2022-10-16T14:07:47;2.30;;;1.37;;
7215;SDS011;3649;48.798;9.798;2022-10-16T14:10:22;2.20;;;1.63;;
7215;SDS011;3649;48.798;9.798;2022-10-16T14:12:59;1.13;;;1.13;;
7215;SDS011;3649;48.798;9.798;2022-10-16T14:15:29;1.67;;;1.57;;
7215;SDS011;3649;48.798;9.798;2022-10-16T14:17:58;1.80;;;1.30;;
7215;SDS011;3649;48.798;9.798;2022-10-16T14:20:26;3.57;;;1.17;;
7215;SDS011;3649;48.798;9.798;2022-10-16T14:23:00;4.37;;;1.20;;
7215;SDS011;3649;48.798;9.798;2022-10-16T14:25:28;2.57;;;1.37;;
7215;SDS011;3649;48.798;9.798;2022-10-16T14:30:48;1.20;;;1.20;;
7215;SDS011;3649;48.798;9.798;2022-10-16T14:36:25;1.40;;;1.30;;
7215;SDS011;3649;48.798;9.798;2022-10-16T14:41:41;1.50;;;1.40;;
7215;SDS011;3649;48.798;9.798;2022-10-16T14:44:11;5.60;;;1.30;;
7215;SDS011;3649;48.798;9.798;2022-10-16T14:46:40;1.77;;;1.67;;
7215;SDS011;3649;48.798;9.798;2022-10-16T14:51:36;6.03;;;1.60;;
7215;SDS011;3649;48.798;9.798;2022-10-16T14:54:04;2.60;;;1.40;;
7215;SDS011;3649;48.798;9.798;2022-10-16T14:56:48;3.10;;;1.80;;
7215;SDS011;3649;48.798;9.798;2022-10-16T14:59:23;2.80;;;1.80;;
7215;SDS011;3649;48.798;9.798;2022-10-16T15:01:56;3.47;;;2.00;;
7215;SDS011;3649;48.798;9.798;2022-10-16T15:04:23;3.13;;;1.80;;
7215;SDS011;3649;48.798;9.798;2022-10-16T15:06:50;2.77;;;1.90;;
7215;SDS011;3649;48.798;9.798;2022-10-16T15:09:17;2.50;;;1.70;;
7215;SDS011;3649;48.798;9.798;2022-10-16T15:11:44;3.37;;;1.97;;
7215;SDS011;3649;48.798;9.798;2022-10-16T15:14:11;2.20;;;2.00;;
7215;SDS011;3649;48.798;9.798;2022-10-16T15:16:40;3.30;;;2.27;;
7215;SDS011;3649;48.798;9.798;2022-10-16T15:19:07;2.20;;;1.80;;
7215;SDS011;3649;48.798;9.798;2022-10-16T15:21:33;3.53;;;1.70;;
7215;SDS011;3649;48.798;9.798;2022-10-16T15:24:00;1.80;;;1.70;;
7215;SDS011;3649;48.798;9.798;2022-10-16T15:26:28;3.30;;;2.13;;
7215;SDS011;3649;48.798;9.798;2022-10-16T15:28:56;6.07;;;2.60;;
7215;SDS011;3649;48.798;9.798;2022-10-16T15:31:23;4.43;;;2.20;;
7215;SDS011;3649;48.798;9.798;2022-10-16T15:33:51;3.00;;;2.03;;
7215;SDS011;3649;48.798;9.798;2022-10-16T15:36:36;8.50;;;2.90;;
7215;SDS011;3649;48.798;9.798;2022-10-16T15:39:04;2.57;;;2.37;;
7215;SDS011;3649;48.798;9.798;2022-10-16T15:41:45;4.00;;;2.83;;
7215;SDS011;3649;48.798;9.798;2022-10-16T15:44:17;4.13;;;2.77;;
7215;SDS011;3649;48.798;9.798;2022-10-16T15:46:45;3.40;;;2.43;;
7215;SDS011;3649;48.798;9.798;2022-10-16T15:49:12;2.67;;;2.47;;
7215;SDS011;3649;48.798;9.798;2022-10-16T15:51:40;3.13;;;2.93;;
7215;SDS011;3649;48.798;9.798;2022-10-16T15:54:08;2.87;;;2.37;;
7215;SDS011;3649;48.798;9.798;2022-10-16T15:56:35;3.63;;;2.77;;
7215;SDS011;3649;48.798;9.798;2022-10-16T15:59:03;3.67;;;2.33;;
7215;SDS011;3649;48.798;9.798;2022-10-16T16:01:34;4.73;;;3.17;;
7215;SDS011;3649;48.798;9.798;2022-10-16T16:04:02;14.47;;;3.63;;
7215;SDS011;3649;48.798;9.798;2022-10-16T16:06:40;3.73;;;3.43;;
7215;SDS011;3649;48.798;9.798;2022-10-16T16:09:11;10.40;;;4.57;;
7215;SDS011;3649;48.798;9.798;2022-10-16T16:11:39;13.97;;;9.33;;
7215;SDS011;3649;48.798;9.798;2022-10-16T16:14:07;8.43;;;5.30;;
7215;SDS011;3649;48.798;9.798;2022-10-16T16:16:37;9.90;;;5.53;;
7215;SDS011;3649;48.798;9.798;2022-10-16T16:19:05;11.03;;;6.23;;
7215;SDS011;3649;48.798;9.798;2022-10-16T16:21:37;10.23;;;5.50;;
7215;SDS011;3649;48.798;9.798;2022-10-16T16:24:04;10.07;;;6.87;;
7215;SDS011;3649;48.798;9.798;2022-10-16T16:26:35;16.63;;;6.90;;
7215;SDS011;3649;48.798;9.798;2022-10-16T16:29:05;10.70;;;6.00;;
7215;SDS011;3649;48.798;9.798;2022-10-16T16:31:32;10.33;;;5.50;;
7215;SDS011;3649;48.798;9.798;2022-10-16T16:34:00;12.80;;;5.70;;
7215;SDS011;3649;48.798;9.798;2022-10-16T16:36:28;11.90;;;4.90;;
7215;SDS011;3649;48.798;9.798;2022-10-16T16:38:56;12.63;;;4.53;;
7215;SDS011;3649;48.798;9.798;2022-10-16T16:41:24;10.77;;;4.40;;
7215;SDS011;3649;48.798;9.798;2022-10-16T16:43:53;8.97;;;4.13;;
7215;SDS011;3649;48.798;9.798;2022-10-16T16:46:21;8.10;;;4.70;;
7215;SDS011;3649;48.798;9.798;2022-10-16T16:48:48;11.27;;;4.50;;
7215;SDS011;3649;48.798;9.798;2022-10-16T16:51:21;10.57;;;3.97;;
7215;SDS011;3649;48.798;9.798;2022-10-16T16:53:49;7.27;;;4.33;;
7215;SDS011;3649;48.798;9.798;2022-10-16T16:56:17;12.20;;;3.60;;
7215;SDS011;3649;48.798;9.798;2022-10-16T16:58:45;6.87;;;3.70;;
7215;SDS011;3649;48.798;9.798;2022-10-16T17:01:13;6.03;;;3.70;;
7215;SDS011;3649;48.798;9.798;2022-10-16T17:03:45;7.47;;;3.50;;
7215;SDS011;3649;48.798;9.798;2022-10-16T17:06:16;11.30;;;4.03;;
7215;SDS011;3649;48.798;9.798;2022-10-16T17:08:46;7.30;;;3.50;;
7215;SDS011;3649;48.798;9.798;2022-10-16T17:11:18;11.87;;;5.33;;
7215;SDS011;3649;48.798;9.798;2022-10-16T17:13:47;6.73;;;4.20;;
7215;SDS011;3649;48.798;9.798;2022-10-16T17:16:22;12.47;;;4.53;;
7215;SDS011;3649;48.798;9.798;2022-10-16T17:18:51;10.80;;;4.33;;
7215;SDS011;3649;48.798;9.798;2022-10-16T17:21:19;6.13;;;4.13;;
7215;SDS011;3649;48.798;9.798;2022-10-16T17:23:46;7.07;;;4.17;;
7215;SDS011;3649;48.798;9.798;2022-10-16T17:26:14;7.53;;;3.90;;
7215;SDS011;3649;48.798;9.798;2022-10-16T17:28:42;9.27;;;4.33;;
7215;SDS011;3649;48.798;9.798;2022-10-16T17:31:10;10.07;;;5.07;;
7215;SDS011;3649;48.798;9.798;2022-10-16T17:33:41;15.40;;;4.60;;
7215;SDS011;3649;48.798;9.798;2022-10-16T17:36:09;13.23;;;5.53;;
7215;SDS011;3649;48.798;9.798;2022-10-16T17:38:37;10.27;;;4.60;;
7215;SDS011;3649;48.798;9.798;2022-10-16T17:41:37;10.37;;;4.77;;
7215;SDS011;3649;48.798;9.798;2022-10-16T17:43:57;10.33;;;4.43;;
7215;SDS011;3649;48.798;9.798;2022-10-16T17:46:24;9.37;;;4.00;;
7215;SDS011;3649;48.798;9.798;2022-10-16T17:48:52;13.20;;;4.47;;
7215;SDS011;3649;48.798;9.798;2022-10-16T17:51:21;5.33;;;4.10;;
7215;SDS011;3649;48.798;9.798;2022-10-16T17:53:51;6.17;;;4.07;;
7215;SDS011;3649;48.798;9.798;2022-10-16T17:56:19;5.60;;;4.20;;
7215;SDS011;3649;48.798;9.798;2022-10-16T17:58:50;13.87;;;5.73;;
7215;SDS011;3649;48.798;9.798;2022-10-16T18:01:19;13.87;;;7.77;;
7215;SDS011;3649;48.798;9.798;2022-10-16T18:03:59;14.67;;;8.50;;
7215;SDS011;3649;48.798;9.798;2022-10-16T18:06:30;14.07;;;9.10;;